Time;durP1;ratioP1;P1;durP2;ratioP2;P2;SDS_P1;SDS_P2;PMS_P1;PMS_P2;Temp;Humidity;BMP_temperature;BMP_pressure;BME280_temperature;BME280_humidity;BME280_pressure;Samples;Min_cycle;Max_cycle;Signal;HPM_P1;HPM_P2
2021/05/24 00:00:30;;;;;;;10.75;6.87;;;;;;;7.89;67.06;100725.56;2118676;84;33870;-60
2021/05/24 00:03:34;;;;;;;12.88;6.37;;;;;;;7.86;67.31;100726.98;2097930;84;27615;-60
2021/05/24 00:06:35;;;;;;;10.80;6.20;;;;;;;7.84;67.56;100726.63;2083676;84;27608;-60
2021/05/24 00:09:37;;;;;;;12.05;6.10;;;;;;;7.80;67.56;100729.87;2083658;85;28971;-60
2021/05/24 00:12:46;;;;;;;10.82;5.83;;;;;;;7.77;67.72;100726.43;2100357;82;31355;-61
2021/05/24 00:15:47;;;;;;;9.63;5.85;;;;;;;7.75;67.78;100723.79;2165177;81;33569;-60
2021/05/24 00:18:53;;;;;;;13.43;6.25;;;;;;;7.70;67.97;100724.38;2165933;82;29316;-60
2021/05/24 00:21:52;;;;;;;9.80;5.72;;;;;;;7.66;67.92;100728.95;2165142;81;27636;-60
2021/05/24 00:24:54;;;;;;;9.60;5.40;;;;;;;7.64;68.03;100733.45;2144636;82;29002;-60
2021/05/24 00:27:57;;;;;;;10.95;5.92;;;;;;;7.62;67.94;100739.76;2165929;82;32198;-60
2021/05/24 00:30:59;;;;;;;11.20;5.90;;;;;;;7.58;68.03;100729.66;2147091;82;33393;-60
2021/05/24 00:34:01;;;;;;;8.33;5.58;;;;;;;7.55;68.17;100728.41;2166120;82;29371;-60
2021/05/24 00:37:03;;;;;;;10.13;6.05;;;;;;;7.52;68.10;100722.72;2140150;82;27658;-61
2021/05/24 00:40:07;;;;;;;11.35;5.95;;;;;;;7.49;68.17;100729.47;2131858;82;29035;-61
2021/05/24 00:43:09;;;;;;;12.07;6.33;;;;;;;7.46;68.23;100724.23;2134638;82;30983;-60
2021/05/24 00:46:11;;;;;;;11.00;5.90;;;;;;;7.43;68.30;100722.53;2151493;82;34094;-60
2021/05/24 00:49:13;;;;;;;12.07;5.70;;;;;;;7.40;68.27;100720.40;2156471;82;30471;-60
2021/05/24 00:52:16;;;;;;;10.35;5.65;;;;;;;7.36;68.24;100714.30;2131572;82;27574;-60
2021/05/24 00:55:18;;;;;;;11.08;5.90;;;;;;;7.34;68.21;100712.61;2128927;83;29777;-60
2021/05/24 00:58:20;;;;;;;11.65;7.22;;;;;;;7.33;68.33;100706.39;2110427;83;32272;-60
2021/05/24 01:01:21;;;;;;;15.35;8.83;;;;;;;7.29;68.57;100697.62;2130834;82;33322;-60
2021/05/24 01:04:23;;;;;;;11.35;6.95;;;;;;;7.28;68.95;100705.67;2146956;82;31435;-60
2021/05/24 01:07:25;;;;;;;12.47;6.87;;;;;;;7.26;68.93;100700.37;2117688;82;27597;-60
2021/05/24 01:10:27;;;;;;;13.13;7.37;;;;;;;7.23;68.82;100699.12;2082857;84;29045;-61
2021/05/24 01:13:29;;;;;;;13.08;7.05;;;;;;;7.20;68.81;100707.20;2172274;81;31771;-60
2021/05/24 01:16:31;;;;;;;12.78;7.53;;;;;;;7.17;68.89;100705.98;2184486;81;34162;-60
2021/05/24 01:19:34;;;;;;;17.20;8.43;;;;;;;7.13;69.04;100701.17;2184588;81;30462;-60
2021/05/24 01:22:38;;;;;;;14.95;7.90;;;;;;;7.09;69.05;100701.31;2184817;81;27591;-60
2021/05/24 01:25:45;;;;;;;13.32;7.03;;;;;;;7.06;69.04;100694.30;2182167;81;29818;-60
2021/05/24 01:28:47;;;;;;;12.03;7.53;;;;;;;7.01;69.00;100692.21;2184520;81;31000;-60
2021/05/24 01:31:50;;;;;;;13.48;7.70;;;;;;;6.98;69.07;100697.62;2184683;81;34171;-59
2021/05/24 01:34:54;;;;;;;12.47;7.47;;;;;;;6.94;69.15;100695.98;2184687;81;29382;-60
2021/05/24 01:37:57;;;;;;;11.88;7.35;;;;;;;6.91;69.07;100694.73;2184101;81;27652;-60
2021/05/24 01:40:59;;;;;;;11.75;7.47;;;;;;;6.88;69.12;100696.14;2184732;81;29018;-60
2021/05/24 01:44:01;;;;;;;11.85;7.62;;;;;;;6.83;69.16;100698.47;2184679;81;31045;-60
2021/05/24 01:47:05;;;;;;;15.75;8.05;;;;;;;6.80;69.14;100693.70;2184921;81;33630;-60
2021/05/24 01:50:09;;;;;;;11.25;7.12;;;;;;;6.76;69.28;100684.03;2174752;81;29500;-60
2021/05/24 01:53:10;;;;;;;14.95;8.65;;;;;;;6.73;69.21;100677.45;2148596;81;27654;-59
2021/05/24 01:56:12;;;;;;;13.70;7.65;;;;;;;6.69;69.22;100678.01;2147281;82;29799;-60
2021/05/24 01:59:14;;;;;;;9.35;6.70;;;;;;;6.67;69.19;100675.40;2149052;81;31410;-60
2021/05/24 02:02:16;;;;;;;15.28;8.08;;;;;;;6.64;69.23;100677.25;2147363;82;33451;-60
2021/05/24 02:05:20;;;;;;;13.10;7.65;;;;;;;6.61;69.44;100679.55;2147072;82;30056;-60
2021/05/24 02:08:22;;;;;;;12.75;7.97;;;;;;;6.59;69.72;100674.72;2147742;81;27537;-60
2021/05/24 02:11:24;;;;;;;14.25;8.05;;;;;;;6.57;69.72;100680.54;2147112;82;28633;-60
2021/05/24 02:14:25;;;;;;;13.22;8.23;;;;;;;6.57;70.38;100691.19;2127590;82;31159;-60
2021/05/24 02:17:27;;;;;;;11.83;8.63;;;;;;;6.53;70.18;100698.86;2121136;83;33514;-61
2021/05/24 02:20:29;;;;;;;15.00;8.95;;;;;;;6.51;70.20;100699.36;2121378;83;29700;-60
2021/05/24 02:23:31;;;;;;;14.23;8.33;;;;;;;6.50;70.46;100710.91;2121709;83;27597;-60
2021/05/24 02:26:34;;;;;;;13.70;7.92;;;;;;;6.48;70.58;100700.77;2131363;83;28547;-60
2021/05/24 02:29:36;;;;;;;12.65;7.78;;;;;;;6.45;70.54;100699.06;2140801;83;31101;-60
2021/05/24 02:32:38;;;;;;;15.72;8.00;;;;;;;6.44;70.50;100697.31;2140440;83;33374;-61
2021/05/24 02:35:40;;;;;;;13.45;8.55;;;;;;;6.42;70.56;100694.25;2123367;83;29378;-61
2021/05/24 02:38:42;;;;;;;13.62;8.48;;;;;;;6.42;70.66;100703.56;2141282;83;27678;-61
2021/05/24 02:41:45;;;;;;;13.18;9.30;;;;;;;6.39;70.58;100698.73;2142126;82;28686;-60
2021/05/24 02:44:46;;;;;;;14.87;8.80;;;;;;;6.39;70.69;100703.20;2141844;83;31005;-61
2021/05/24 02:47:49;;;;;;;14.58;8.93;;;;;;;6.37;70.73;100716.53;2111420;83;32764;-61
2021/05/24 02:50:52;;;;;;;15.88;9.13;;;;;;;6.38;70.85;100725.41;2134270;83;29702;-62
2021/05/24 02:53:53;;;;;;;17.17;9.90;;;;;;;6.38;71.18;100720.08;2141228;82;27588;-61
2021/05/24 02:56:56;;;;;;;14.58;8.93;;;;;;;6.40;71.42;100716.93;2141698;83;29673;-61
2021/05/24 02:59:58;;;;;;;14.35;9.75;;;;;;;6.43;71.87;100707.98;2141537;83;32095;-60
2021/05/24 03:02:59;;;;;;;11.68;8.30;;;;;;;6.45;71.86;100712.38;2141937;83;34100;-60
2021/05/24 03:06:04;;;;;;;12.73;9.18;;;;;;;6.48;72.43;100712.27;2128327;83;29311;-60
2021/05/24 03:09:07;;;;;;;14.63;9.68;;;;;;;6.54;71.98;100709.89;2142183;82;27603;-60
2021/05/24 03:12:09;;;;;;;11.68;9.08;;;;;;;6.57;72.11;100705.83;2142075;83;28983;-60
2021/05/24 03:15:14;;;;;;;16.20;9.60;;;;;;;6.62;72.30;100709.25;2179360;81;32146;-60
2021/05/24 03:18:16;;;;;;;20.80;9.68;;;;;;;6.67;72.32;100706.02;2187323;81;33098;-60
2021/05/24 03:21:17;;;;;;;12.37;7.90;;;;;;;6.73;72.49;100708.97;2185995;81;29689;-60
2021/05/24 03:24:19;;;;;;;13.95;8.25;;;;;;;6.78;72.56;100708.39;2178668;81;27617;-60
2021/05/24 03:27:21;;;;;;;13.40;8.80;;;;;;;6.83;72.50;100709.12;2149542;82;29391;-63
2021/05/24 03:30:23;;;;;;;14.63;9.23;;;;;;;6.90;72.34;100703.64;2172152;81;31465;-61
2021/05/24 03:33:25;;;;;;;15.25;8.98;;;;;;;6.95;72.31;100697.73;2181159;81;34148;-60
2021/05/24 03:36:26;;;;;;;12.78;9.20;;;;;;;6.98;72.44;100701.61;2156442;81;30365;-60
2021/05/24 03:39:28;;;;;;;13.00;9.40;;;;;;;7.04;72.36;100697.89;2149819;82;27722;-62
2021/05/24 03:42:30;;;;;;;11.57;7.55;;;;;;;7.09;72.46;100689.33;2149648;82;29030;-60
2021/05/24 03:45:32;;;;;;;16.20;7.90;;;;;;;7.12;72.46;100696.76;2157127;81;31383;-62
2021/05/24 03:48:33;;;;;;;11.88;7.67;;;;;;;7.19;72.41;100699.26;2176522;81;34119;-62
2021/05/24 03:51:35;;;;;;;12.43;7.22;;;;;;;7.22;72.64;100691.19;2185474;81;30188;-60
2021/05/24 03:54:37;;;;;;;12.53;8.23;;;;;;;7.27;72.98;100692.79;2187347;81;27622;-60
2021/05/24 03:57:39;;;;;;;16.37;8.25;;;;;;;7.33;72.68;100690.39;2187251;81;29144;-62
2021/05/24 04:00:41;;;;;;;11.38;8.25;;;;;;;7.40;72.61;100683.97;2183053;81;31366;-60
2021/05/24 04:03:43;;;;;;;11.75;8.28;;;;;;;7.48;72.60;100687.73;2175939;81;33758;-60
2021/05/24 04:06:49;;;;;;;12.28;8.75;;;;;;;7.54;72.57;100684.86;2175016;81;29830;-60
2021/05/24 04:09:49;;;;;;;12.28;7.83;;;;;;;7.63;72.42;100690.84;2158115;81;27624;-60
2021/05/24 04:12:51;;;;;;;10.20;8.48;;;;;;;7.72;72.67;100691.88;2149737;82;29791;-60
2021/05/24 04:15:55;;;;;;;15.30;9.03;;;;;;;7.80;72.44;100690.30;2121789;82;31378;-60
2021/05/24 04:18:56;;;;;;;11.88;7.95;;;;;;;7.90;72.35;100699.77;2117236;83;33448;-60
2021/05/24 04:21:58;;;;;;;10.82;7.83;;;;;;;8.01;72.47;100704.77;2105902;84;29539;-60
2021/05/24 04:25:00;;;;;;;11.12;8.03;;;;;;;8.12;72.49;100717.29;2106066;84;28164;-62
2021/05/24 04:28:02;;;;;;;11.30;8.50;;;;;;;8.24;72.30;100711.13;2105902;84;29820;-60
2021/05/24 04:31:04;;;;;;;10.58;7.70;;;;;;;8.36;72.46;100710.27;2141111;83;32734;-64
2021/05/24 04:34:06;;;;;;;11.33;8.08;;;;;;;8.52;72.38;100709.77;2142081;83;32958;-62
2021/05/24 04:37:08;;;;;;;14.87;6.87;;;;;;;9.04;73.04;100717.72;2128545;83;29715;-62
2021/05/24 04:40:11;;;;;;;9.68;5.47;;;;;;;10.09;73.21;100720.86;2105823;84;27643;-61
2021/05/24 04:43:15;;;;;;;7.20;5.03;;;;;;;11.32;71.79;100714.27;2105928;84;30000;-61
2021/05/24 04:46:16;;;;;;;8.58;5.12;;;;;;;12.53;71.21;100713.83;2105747;84;31119;-62
2021/05/24 04:49:19;;;;;;;12.98;4.97;;;;;;;13.79;70.11;100713.44;2139225;83;34252;-62
2021/05/24 04:52:21;;;;;;;6.22;4.40;;;;;;;15.07;68.73;100716.30;2142078;83;30527;-62
2021/05/24 04:55:23;;;;;;;6.35;4.22;;;;;;;16.24;66.55;100708.81;2142393;83;27638;-61
2021/05/24 04:58:25;;;;;;;5.05;3.70;;;;;;;17.38;65.39;100714.62;2118281;83;29330;-66
2021/05/24 05:01:29;;;;;;;6.00;3.30;;;;;;;18.48;63.56;100712.84;2104640;83;31004;-66
2021/05/24 05:04:30;;;;;;;6.58;4.87;;;;;;;19.48;59.49;100707.39;2101513;84;33035;-67
2021/05/24 05:07:31;;;;;;;11.05;5.58;;;;;;;20.20;58.47;100709.26;2101469;84;29328;-67
2021/05/24 05:10:33;;;;;;;9.18;5.35;;;;;;;20.95;57.66;100703.33;2101987;84;27671;-67
2021/05/24 05:13:36;;;;;;;10.38;5.10;;;;;;;21.73;56.33;100703.38;2110787;82;28596;-62
2021/05/24 05:16:38;;;;;;;6.17;3.40;;;;;;;22.49;54.48;100703.28;2150353;81;31185;-62
2021/05/24 05:19:40;;;;;;;5.03;3.65;;;;;;;23.14;53.37;100698.98;2149757;82;34139;-62
2021/05/24 05:22:42;;;;;;;6.83;3.22;;;;;;;23.25;51.71;100689.26;2149796;82;30470;-62
2021/05/24 05:25:43;;;;;;;4.60;3.33;;;;;;;23.55;49.94;100691.88;2149067;81;27621;-62
2021/05/24 05:28:45;;;;;;;6.62;2.98;;;;;;;23.90;49.24;100691.61;2148025;82;28386;-62
2021/05/24 05:31:49;;;;;;;5.40;3.30;;;;;;;24.11;47.26;100707.77;2147869;82;32059;-62
2021/05/24 05:34:50;;;;;;;7.27;2.50;;;;;;;24.36;47.63;100699.30;2151086;81;33313;-62
2021/05/24 05:37:52;;;;;;;3.40;2.58;;;;;;;24.53;44.70;100702.18;2148899;81;30681;-62
2021/05/24 05:40:54;;;;;;;3.37;2.27;;;;;;;24.67;45.50;100702.14;2148198;82;27545;-62
2021/05/24 05:43:56;;;;;;;5.22;2.75;;;;;;;25.01;45.15;100693.17;2147857;82;29816;-62
2021/05/24 05:46:58;;;;;;;4.75;2.95;;;;;;;25.42;44.17;100693.94;2151649;81;32263;-62
2021/05/24 05:50:00;;;;;;;7.05;2.80;;;;;;;25.81;43.53;100706.27;2149707;82;34115;-62
2021/05/24 05:53:02;;;;;;;6.92;2.80;;;;;;;26.20;42.72;100697.48;2150002;82;29378;-62
2021/05/24 05:56:05;;;;;;;6.70;2.72;;;;;;;26.62;42.38;100701.13;2151984;81;27652;-63
2021/05/24 05:59:07;;;;;;;9.30;2.50;;;;;;;26.97;40.19;100699.91;2149817;82;29512;-61
2021/05/24 06:02:09;;;;;;;5.60;2.25;;;;;;;27.24;40.79;100699.16;2149743;82;32284;-62
2021/05/24 06:05:12;;;;;;;4.42;2.40;;;;;;;27.61;39.41;100695.47;2149820;81;33395;-63
2021/05/24 06:08:14;;;;;;;6.47;2.60;;;;;;;27.83;39.65;100697.06;2150191;82;29337;-62
2021/05/24 06:11:16;;;;;;;6.00;2.20;;;;;;;28.25;39.13;100701.33;2150013;81;27695;-63
2021/05/24 06:14:18;;;;;;;5.62;2.25;;;;;;;28.41;37.83;100707.22;2149909;81;28680;-62
2021/05/24 06:17:20;;;;;;;2.77;2.00;;;;;;;28.53;37.40;100710.95;2149746;82;32107;-62
2021/05/24 06:20:23;;;;;;;3.67;2.33;;;;;;;28.63;37.05;100706.87;2149743;82;34161;-75
2021/05/24 06:23:25;;;;;;;6.60;2.10;;;;;;;28.63;36.83;100711.54;2170090;81;29674;-74
2021/05/24 06:26:26;;;;;;;5.28;2.15;;;;;;;28.40;36.21;100711.02;2184627;81;27696;-70
2021/05/24 06:29:28;;;;;;;3.20;2.00;;;;;;;28.03;35.73;100719.52;2187276;81;29869;-73
2021/05/24 06:32:30;;;;;;;7.80;2.00;;;;;;;27.23;35.22;100722.72;2187407;81;30971;-63
2021/05/24 06:35:33;;;;;;;8.23;2.20;;;;;;;26.69;35.63;100729.63;2187419;81;32936;-61
2021/05/24 06:38:34;;;;;;;3.42;1.90;;;;;;;26.19;36.02;100728.19;2182327;81;29399;-65
2021/05/24 06:41:36;;;;;;;3.98;1.90;;;;;;;26.00;35.69;100720.22;2181514;81;27560;-64
2021/05/24 06:44:38;;;;;;;2.58;1.50;;;;;;;25.45;35.45;100727.38;2181330;81;29192;-64
2021/05/24 06:47:40;;;;;;;4.28;1.30;;;;;;;25.00;36.06;100736.16;2175532;81;31877;-61
2021/05/24 06:50:41;;;;;;;2.37;1.70;;;;;;;24.74;36.11;100723.78;2169494;81;34114;-61
2021/05/24 06:53:43;;;;;;;7.65;1.70;;;;;;;24.45;36.05;100719.41;2169779;81;29711;-63
2021/05/24 06:56:44;;;;;;;5.10;2.10;;;;;;;24.14;36.46;100735.36;2166859;81;27568;-63
2021/05/24 06:59:46;;;;;;;2.72;1.57;;;;;;;23.91;36.65;100730.28;2149883;81;30836;-64
2021/05/24 07:02:48;;;;;;;3.70;1.30;;;;;;;23.90;37.21;100732.66;2154796;81;31352;-63
2021/05/24 07:05:50;;;;;;;4.30;1.77;;;;;;;23.88;37.34;100738.78;2165069;81;34062;-64
2021/05/24 07:08:52;;;;;;;6.62;2.12;;;;;;;23.82;37.20;100734.79;2166796;81;30445;-64
2021/05/24 07:11:53;;;;;;;6.10;1.85;;;;;;;23.76;37.67;100736.75;2145671;81;27643;-77
2021/05/24 07:14:56;;;;;;;11.78;2.02;;;;;;;23.75;37.92;100733.66;2151076;81;28615;-61
2021/05/24 07:17:57;;;;;;;6.87;2.50;;;;;;;23.67;37.61;100735.30;2099650;83;31424;-61
2021/05/24 07:20:59;;;;;;;5.72;1.60;;;;;;;23.42;36.75;100729.13;2120760;83;34124;-62
2021/05/24 07:24:01;;;;;;;3.95;1.70;;;;;;;23.21;36.95;100721.51;2114168;83;29877;-61
2021/05/24 07:27:04;;;;;;;4.08;1.90;;;;;;;23.07;38.02;100717.85;2119934;83;27684;-61
2021/05/24 07:30:08;;;;;;;2.83;1.75;;;;;;;23.06;37.85;100710.17;2126989;83;28627;-61
2021/05/24 07:33:10;;;;;;;5.47;1.50;;;;;;;22.96;37.89;100710.69;2119038;83;31727;-62
2021/05/24 07:36:12;;;;;;;5.87;1.80;;;;;;;22.94;37.94;100705.87;2139915;82;33365;-61
2021/05/24 07:39:13;;;;;;;1.92;1.32;;;;;;;22.98;38.30;100703.20;2128817;83;29720;-61
2021/05/24 07:42:15;;;;;;;5.25;1.47;;;;;;;22.87;37.88;100708.33;2124906;82;27664;-61
2021/05/24 07:45:17;;;;;;;5.67;1.45;;;;;;;22.74;37.42;100709.14;2128479;82;28622;-62
2021/05/24 07:48:39;;;;;;;7.37;1.67;;;;;;;22.40;37.58;100704.98;2120564;82;31732;-61
2021/05/24 07:51:41;;;;;;;1.90;1.47;;;;;;;21.98;37.90;100703.84;2160306;80;32963;-60
2021/05/24 07:54:44;;;;;;;2.22;1.62;;;;;;;21.98;38.74;100705.20;2165485;80;30580;-60
2021/05/24 07:57:45;;;;;;;1.77;1.30;;;;;;;21.99;37.95;100703.72;2180713;80;27846;-60
2021/05/24 08:00:48;;;;;;;2.87;1.35;;;;;;;21.77;38.47;100700.70;2166013;80;29781;-60
2021/05/24 08:03:49;;;;;;;3.22;1.72;;;;;;;21.60;38.64;100693.16;2167179;80;32311;-60
2021/05/24 08:06:51;;;;;;;1.62;1.52;;;;;;;21.53;39.01;100686.03;2158800;80;35131;-60
2021/05/24 08:09:53;;;;;;;3.60;1.72;;;;;;;21.30;38.72;100686.73;2164809;80;29089;-60
2021/05/24 08:12:55;;;;;;;3.42;1.57;;;;;;;21.25;38.89;100689.39;2141752;80;27698;-61
2021/05/24 08:15:57;;;;;;;2.22;1.32;;;;;;;21.31;39.51;100683.02;2170960;80;28654;-61
2021/05/24 08:18:58;;;;;;;5.80;1.70;;;;;;;21.38;39.24;100684.20;2163753;80;31385;-65
2021/05/24 08:22:00;;;;;;;2.45;1.42;;;;;;;21.37;38.89;100664.77;2174130;80;32976;-61
2021/05/24 08:25:04;;;;;;;3.20;1.40;;;;;;;21.34;39.07;100650.92;2167967;80;29336;-62
2021/05/24 08:28:08;;;;;;;3.58;1.20;;;;;;;21.43;39.33;100640.17;2152905;81;27654;-61
2021/05/24 08:31:09;;;;;;;3.02;1.12;;;;;;;21.56;39.29;100638.05;2112740;82;29027;-60
2021/05/24 08:34:11;;;;;;;4.17;1.30;;;;;;;21.53;38.50;100628.78;2159941;80;32535;-61
2021/05/24 08:37:13;;;;;;;2.77;1.40;;;;;;;21.28;38.82;100636.47;2177723;80;33872;-60
2021/05/24 08:40:15;;;;;;;3.52;1.37;;;;;;;21.20;39.04;100638.52;2175909;80;29818;-60
2021/05/24 08:43:17;;;;;;;3.33;1.20;;;;;;;21.11;39.36;100639.33;2162909;80;27652;-60
2021/05/24 08:46:19;;;;;;;1.40;1.22;;;;;;;21.12;38.96;100639.69;2160076;80;29779;-61
2021/05/24 08:49:21;;;;;;;5.60;1.95;;;;;;;20.98;38.96;100642.78;2175098;80;31336;-61
2021/05/24 08:52:23;;;;;;;9.80;3.42;;;;;;;20.88;39.48;100636.80;2081244;83;33802;-61
2021/05/24 08:55:25;;;;;;;4.12;1.15;;;;;;;21.06;39.34;100634.81;2088832;83;30206;-60
2021/05/24 08:58:27;;;;;;;18.62;6.53;;;;;;;21.16;39.04;100640.30;2091031;83;27605;-58
2021/05/24 09:01:29;;;;;;;2.58;1.40;;;;;;;21.17;39.06;100640.67;2085759;83;29014;-59
2021/05/24 09:04:48;;;;;;;6.37;1.50;;;;;;;21.25;38.63;100642.19;2093175;84;31771;-60
2021/05/24 09:07:58;;;;;;;4.47;1.42;;;;;;;21.12;38.46;100632.88;2124307;82;32954;-60
2021/05/24 09:11:00;;;;;;;2.72;1.90;;;;;;;21.05;38.85;100642.10;2093272;84;29358;-60
2021/05/24 09:14:21;;;;;;;3.30;1.32;;;;;;;21.07;38.65;100643.34;2135947;82;28309;-59
2021/05/24 09:17:43;;;;;;;1.90;1.10;;;;;;;21.19;39.25;100635.44;2125074;82;29836;-58
2021/05/24 09:20:51;;;;;;;1.95;1.15;;;;;;;21.39;39.04;100628.18;2114588;81;32120;-60
2021/05/24 09:23:54;;;;;;;1.65;1.17;;;;;;;21.50;38.91;100619.03;2131324;81;32958;-60
2021/05/24 09:27:02;;;;;;;3.30;1.12;;;;;;;21.68;38.41;100615.66;2091522;84;29732;-60
2021/05/24 09:30:06;;;;;;;2.10;0.90;;;;;;;21.58;37.90;100607.42;2117821;84;27675;-60
2021/05/24 09:33:14;;;;;;;3.77;1.00;;;;;;;21.48;37.97;100596.50;2118751;84;28703;-59
2021/05/24 09:36:16;;;;;;;1.47;1.12;;;;;;;21.46;38.36;100597.66;2101267;84;31022;-59
2021/05/24 09:39:18;;;;;;;1.37;0.90;;;;;;;21.48;37.81;100592.92;2118379;84;34018;-60
2021/05/24 09:42:20;;;;;;;2.02;0.93;;;;;;;21.48;37.59;100598.38;2065023;85;30512;-60
2021/05/24 09:45:23;;;;;;;2.72;1.12;;;;;;;21.52;38.44;100602.04;2085389;84;27638;-60
2021/05/24 09:48:33;;;;;;;4.03;1.62;;;;;;;21.53;37.97;100579.23;2083618;85;29055;-62
2021/05/24 09:51:37;;;;;;;4.42;1.40;;;;;;;21.45;37.54;100591.32;2097457;83;31762;-60
2021/05/24 09:54:40;;;;;;;11.05;1.70;;;;;;;21.33;37.60;100587.00;2187548;81;33738;-60
2021/05/24 09:57:54;;;;;;;10.08;1.77;;;;;;;21.29;38.36;100580.09;2187428;81;30056;-60
2021/05/24 10:01:14;;;;;;;2.25;1.45;;;;;;;21.37;37.90;100580.27;2187921;81;27618;-60
2021/05/24 10:04:10;;;;;;;2.87;1.00;;;;;;;21.39;37.86;100568.73;2184727;81;28985;-60
2021/05/24 10:07:12;;;;;;;1.62;0.88;;;;;;;21.44;38.33;100569.16;2187274;81;32097;-61
2021/05/24 10:10:15;;;;;;;2.42;1.47;;;;;;;21.50;38.00;100565.03;2184288;81;33314;-59
2021/05/24 10:13:18;;;;;;;4.05;1.07;;;;;;;21.58;37.90;100562.44;2187806;81;29312;-59
2021/05/24 10:16:20;;;;;;;6.53;1.50;;;;;;;21.55;37.07;100549.97;2185200;81;27665;-59
2021/05/24 10:19:22;;;;;;;5.45;1.35;;;;;;;21.57;37.20;100555.27;2187199;81;28987;-62
2021/05/24 10:22:24;;;;;;;5.50;1.20;;;;;;;21.49;37.13;100555.13;2187284;81;31614;-61
2021/05/24 10:25:27;;;;;;;2.70;1.20;;;;;;;21.43;37.20;100559.77;2170481;80;32914;-63
2021/05/24 10:28:32;;;;;;;2.75;1.17;;;;;;;21.42;37.39;100560.77;2149693;82;29318;-60
2021/05/24 10:31:35;;;;;;;4.20;0.95;;;;;;;21.40;37.09;100556.83;2149900;82;27620;-60
2021/05/24 10:34:39;;;;;;;5.10;1.40;;;;;;;21.34;37.66;100559.63;2151570;81;28639;-60
2021/05/24 10:37:42;;;;;;;2.58;1.30;;;;;;;21.44;37.48;100558.77;2186726;81;31095;-60
2021/05/24 10:40:45;;;;;;;2.70;1.10;;;;;;;21.37;37.39;100555.23;2187508;81;34153;-60
2021/05/24 10:43:54;;;;;;;4.37;1.15;;;;;;;21.43;38.17;100552.95;2187270;81;29337;-69
2021/05/24 10:46:56;;;;;;;2.92;1.22;;;;;;;21.65;38.22;100543.19;2162210;81;27649;-67
2021/05/24 10:50:08;;;;;;;4.45;1.35;;;;;;;21.79;37.98;100540.52;2187430;81;28649;-67
2021/05/24 10:53:23;;;;;;;3.08;1.35;;;;;;;21.83;37.95;100539.23;2187136;81;31472;-64
2021/05/24 10:56:24;;;;;;;;;;;;;;;21.88;38.14;100529.25;2186947;81;33033;-73
2021/05/24 10:59:44;;;;;;;7.58;1.02;;;;;;;22.21;38.21;100523.48;2186922;81;30019;-60
2021/05/24 11:02:53;;;;;;;9.28;1.90;;;;;;;22.28;37.62;100515.92;2187374;81;27720;-60
2021/05/24 11:06:13;;;;;;;1.60;0.85;;;;;;;22.42;37.78;100520.58;2167848;81;29581;-61
2021/05/24 11:09:16;;;;;;;2.58;1.10;;;;;;;22.55;37.36;100517.53;2130513;82;45548;-60
2021/05/24 11:12:31;;;;;;;1.57;0.90;;;;;;;22.56;36.55;100505.08;2149700;82;34106;-77
2021/05/24 11:15:35;;;;;;;3.83;1.10;;;;;;;22.58;36.83;100502.22;2149523;82;29375;-72
2021/05/24 11:18:40;;;;;;;3.53;1.03;;;;;;;22.44;36.13;100491.27;2148971;82;27562;-59
2021/05/24 11:21:54;;;;;;;1.72;1.00;;;;;;;22.21;36.78;100492.95;2173398;81;28710;-59
2021/05/24 11:28:53;;;;;;;3.92;1.20;;;;;;;22.05;36.90;100497.66;2177722;81;33762;-59
2021/05/24 11:31:56;;;;;;;3.12;1.12;;;;;;;22.11;37.75;100472.50;2120801;83;29706;-58
2021/05/24 11:34:59;;;;;;;1.72;1.47;;;;;;;22.13;37.25;100475.10;2120809;83;28211;-63
2021/05/24 11:38:00;;;;;;;7.25;1.60;;;;;;;22.07;37.32;100468.86;2128822;82;28773;-65
2021/05/24 11:41:15;;;;;;;1.62;1.10;;;;;;;22.10;37.92;100463.95;2156523;81;30607;-59
2021/05/24 11:44:17;;;;;;;;;;;;;;;22.16;38.19;100468.83;2152304;82;33337;-59
2021/05/24 11:47:25;;;;;;;3.75;1.07;;;;;;;22.29;37.85;100473.98;2150998;81;29375;-60
2021/05/24 11:50:28;;;;;;;1.62;1.15;;;;;;;22.43;37.61;100457.63;2059063;84;28259;-58
2021/05/24 11:53:30;;;;;;;2.75;1.12;;;;;;;22.51;37.70;100454.15;2057530;85;29361;-58
2021/05/24 11:56:42;;;;;;;2.75;1.22;;;;;;;22.56;37.50;100452.36;2138034;83;31183;-60
2021/05/24 11:59:43;;;;;;;4.47;1.50;;;;;;;22.57;37.34;100454.92;2136471;83;33024;-60
2021/05/24 12:02:46;;;;;;;3.33;1.30;;;;;;;22.63;37.64;100448.52;2138109;83;30441;-59
2021/05/24 12:05:48;;;;;;;1.32;1.00;;;;;;;22.68;36.84;100425.69;2103246;83;27694;-59
2021/05/24 12:08:50;;;;;;;5.80;1.25;;;;;;;22.49;36.38;100430.27;2097253;84;29114;-58
2021/05/24 12:11:56;;;;;;;4.55;1.30;;;;;;;22.45;37.18;100409.73;2115803;84;30992;-59
2021/05/24 12:15:03;;;;;;;2.33;1.10;;;;;;;22.61;36.82;100400.86;2139074;82;33304;-59
2021/05/24 12:18:06;;;;;;;2.60;0.90;;;;;;;22.55;36.53;100398.76;2145676;82;29296;-59
2021/05/24 12:21:08;;;;;;;1.20;1.00;;;;;;;22.51;36.51;100391.35;2120917;83;27640;-59
2021/05/24 12:24:11;;;;;;;2.08;0.93;;;;;;;22.50;36.63;100380.59;2120855;83;29500;-59
2021/05/24 12:27:16;;;;;;;3.22;1.50;;;;;;;22.45;36.74;100376.45;2155454;82;31005;-59
2021/05/24 12:30:43;;;;;;;0.90;0.80;;;;;;;22.47;36.85;100376.31;2155421;82;33792;-59
2021/05/24 12:33:45;;;;;;;3.02;0.98;;;;;;;22.50;36.71;100363.73;2154796;82;30580;-60
2021/05/24 12:36:58;;;;;;;2.75;0.70;;;;;;;22.43;36.61;100347.07;2155664;82;28031;-59
2021/05/24 12:39:57;;;;;;;2.45;0.98;;;;;;;22.37;36.87;100351.77;2127134;82;29432;-59
2021/05/24 12:43:02;;;;;;;3.52;0.93;;;;;;;22.35;36.17;100346.08;2179412;81;31935;-59
2021/05/24 12:46:07;;;;;;;3.22;2.62;;;;;;;22.26;36.33;100341.91;2158009;82;33693;-59
2021/05/24 12:49:09;;;;;;;2.95;1.15;;;;;;;22.16;36.25;100343.83;2187153;81;29474;-59
2021/05/24 12:52:13;;;;;;;2.55;0.90;;;;;;;22.09;36.56;100337.25;2142553;81;27550;-59
2021/05/24 12:55:18;;;;;;;4.35;0.90;;;;;;;22.05;36.67;100342.16;2107477;84;28667;-59
2021/05/24 12:58:22;;;;;;;1.72;0.68;;;;;;;21.90;36.20;100339.04;2107512;84;31977;-59
2021/05/24 13:01:32;;;;;;;;;;;;;;;21.87;36.87;100324.84;2122993;83;33627;-60
2021/05/24 13:04:36;;;;;;;2.62;1.10;;;;;;;21.90;37.22;100330.02;2143773;83;29321;-59
2021/05/24 13:07:51;;;;;;;4.80;1.33;;;;;;;21.96;36.75;100319.36;2144132;82;27574;-59
2021/05/24 13:10:52;;;;;;;;;;;;;;;21.95;36.50;100305.85;2139177;82;28798;-59
2021/05/24 13:14:09;;;;;;;3.12;0.85;;;;;;;21.93;36.11;100299.20;2139532;82;30983;-59
2021/05/24 13:17:35;;;;;;;1.02;0.65;;;;;;;21.87;35.71;100288.03;2143944;82;33561;-60
2021/05/24 13:24:07;;;;;;;4.42;1.05;;;;;;;21.97;36.25;100279.28;2111456;83;27687;-59
2021/05/24 13:30:09;;;;;;;8.80;1.60;;;;;;;21.82;35.50;100273.48;2103387;84;31049;-59
2021/05/24 13:33:40;;;;;;;4.05;0.88;;;;;;;21.60;35.19;100270.58;2118683;82;32987;-59
2021/05/24 13:36:55;;;;;;;5.58;1.07;;;;;;;21.41;35.69;100266.93;2106961;84;29362;-58
2021/05/24 13:40:00;;;;;;;5.37;0.80;;;;;;;21.29;35.45;100273.53;2123185;83;27663;-59
2021/05/24 13:43:02;;;;;;;3.33;1.12;;;;;;;21.24;35.60;100260.36;2137661;82;29864;-59
2021/05/24 13:46:05;;;;;;;0.65;0.53;;;;;;;21.20;35.58;100256.20;2124390;82;32148;-59
2021/05/24 13:49:08;;;;;;;4.22;0.82;;;;;;;21.22;35.78;100254.19;2118733;82;34026;-60
2021/05/24 13:52:11;;;;;;;0.80;0.60;;;;;;;21.22;35.45;100248.26;2102008;82;29891;-60
2021/05/24 13:55:14;;;;;;;1.52;0.70;;;;;;;21.25;35.60;100260.23;2178300;81;28003;-65
2021/05/24 13:58:16;;;;;;;2.85;0.80;;;;;;;21.30;35.78;100261.63;2177775;81;28568;-59
2021/05/24 14:01:18;;;;;;;2.58;0.90;;;;;;;21.38;35.67;100261.77;2178583;81;30993;-59
2021/05/24 14:04:20;;;;;;;4.25;0.98;;;;;;;21.41;35.22;100257.39;2178114;81;32943;-61
2021/05/24 14:07:22;;;;;;;3.83;1.00;;;;;;;21.33;33.90;100254.53;2177644;81;30445;-59
2021/05/24 14:10:24;;;;;;;0.65;0.60;;;;;;;21.16;34.07;100252.08;2142353;81;27544;-60
2021/05/24 14:13:30;;;;;;;6.53;1.00;;;;;;;21.01;33.93;100237.55;2141084;82;29078;-60
2021/05/24 14:16:32;;;;;;;7.15;0.70;;;;;;;20.92;34.21;100230.23;2141074;83;31468;-62
2021/05/24 14:19:34;;;;;;;5.70;0.80;;;;;;;20.89;35.15;100226.44;2120046;82;33770;-59
2021/05/24 14:22:39;;;;;;;4.22;0.70;;;;;;;20.91;35.15;100227.16;2141307;82;30060;-60
2021/05/24 14:25:41;;;;;;;4.17;0.98;;;;;;;21.01;35.17;100221.70;2141417;83;27469;-60